Wetterdaten: Woche 23.06.14 - 29.06.14 (KW26)
Datum Zeit Temperatur Luftfeuchte Luftdruck Niederschlag Windrichtung Sonnenschein Solar Wind
23.06.2014 00:00 16,1 C 64 % 1017,8 hPa 0,0 l/m N-NO 0,00 h 0 W/m 4,3 km/h (1 Bft)
23.06.2014 01:00 14,9 C 70 % 1017,6 hPa 0,0 l/m N 0,00 h 0 W/m 2,1 km/h (1 Bft)
23.06.2014 02:00 14,1 C 73 % 1017,5 hPa 0,0 l/m N-NO 0,00 h 0 W/m 4,7 km/h (1 Bft)
23.06.2014 03:00 13,3 C 75 % 1017,5 hPa 0,0 l/m N-NO 0,00 h 0 W/m 6,4 km/h (2 Bft)
23.06.2014 04:00 12,4 C 79 % 1017,5 hPa 0,0 l/m N 0,00 h 0 W/m 4,3 km/h (1 Bft)
23.06.2014 05:00 11,8 C 81 % 1017,3 hPa 0,0 l/m N-NO 0,08 h 10 W/m 3,6 km/h (1 Bft)
23.06.2014 06:00 12,1 C 81 % 1017,1 hPa 0,0 l/m N-NO 0,00 h 63 W/m 4,1 km/h (1 Bft)
23.06.2014 07:00 14,3 C 73 % 1017,1 hPa 0,0 l/m N-NO 0,83 h 204 W/m 8,4 km/h (2 Bft)
23.06.2014 08:00 16,6 C 66 % 1017,1 hPa 0,0 l/m NO 1,00 h 364 W/m 10,1 km/h (2 Bft)
23.06.2014 09:00 18,6 C 60 % 1016,9 hPa 0,0 l/m O-NO 1,00 h 523 W/m 12,6 km/h (3 Bft)
23.06.2014 10:00 20,5 C 55 % 1016,6 hPa 0,0 l/m O-SO 1,00 h 661 W/m 13,3 km/h (3 Bft)
23.06.2014 11:00 21,9 C 52 % 1015,9 hPa 0,0 l/m O-NO 1,00 h 765 W/m 13,6 km/h (3 Bft)
23.06.2014 12:00 23,2 C 48 % 1015,4 hPa 0,0 l/m O-NO 1,00 h 846 W/m 13,0 km/h (3 Bft)
23.06.2014 13:00 24,5 C 43 % 1015,0 hPa 0,0 l/m NO 1,00 h 872 W/m 10,7 km/h (2 Bft)
23.06.2014 14:00 25,4 C 42 % 1014,2 hPa 0,0 l/m N-NO 0,92 h 799 W/m 14,6 km/h (3 Bft)
23.06.2014 15:00 26,0 C 40 % 1013,6 hPa 0,0 l/m NO 0,83 h 589 W/m 13,6 km/h (3 Bft)
23.06.2014 16:00 24,8 C 42 % 1013,7 hPa 0,0 l/m NO 0,00 h 211 W/m 7,2 km/h (2 Bft)
23.06.2014 17:00 23,9 C 46 % 1014,0 hPa 0,0 l/m O 0,00 h 56 W/m 11,4 km/h (2 Bft)
23.06.2014 18:00 17,9 C 84 % 1014,5 hPa 10,8 l/m W-NW 0,00 h 22 W/m 16,8 km/h (3 Bft)
23.06.2014 19:00 16,7 C 95 % 1013,9 hPa 0,0 l/m S-SW 0,00 h 47 W/m 10,1 km/h (2 Bft)
23.06.2014 20:00 16,4 C 96 % 1013,7 hPa 0,0 l/m SW 0,00 h 22 W/m 4,9 km/h (1 Bft)
23.06.2014 21:00 16,1 C 96 % 1013,7 hPa 0,2 l/m N 0,00 h 5 W/m 2,4 km/h (1 Bft)
23.06.2014 22:00 15,9 C 96 % 1014,1 hPa 1,2 l/m NW 0,00 h 0 W/m 5,9 km/h (2 Bft)
23.06.2014 23:00 15,7 C 96 % 1013,8 hPa 0,4 l/m N-NO 0,00 h 0 W/m 10,3 km/h (2 Bft)
24.06.2014 00:00 14,8 C 96 % 1014,1 hPa 0,0 l/m N-NO 0,00 h 0 W/m 6,4 km/h (2 Bft)
24.06.2014 01:00 13,6 C 95 % 1014,7 hPa 5,8 l/m N 0,00 h 0 W/m 13,2 km/h (3 Bft)
24.06.2014 02:00 12,9 C 97 % 1014,2 hPa 1,0 l/m N 0,00 h 0 W/m 7,4 km/h (2 Bft)
24.06.2014 03:00 12,7 C 96 % 1014,1 hPa 1,8 l/m N-NO 0,00 h 0 W/m 3,2 km/h (1 Bft)
24.06.2014 04:00 12,7 C 97 % 1014,2 hPa 1,0 l/m N 0,00 h 0 W/m 1,5 km/h (1 Bft)
24.06.2014 05:00 12,6 C 97 % 1013,9 hPa 0,8 l/m N-NO 0,00 h 5 W/m 3,3 km/h (1 Bft)
24.06.2014 06:00 12,6 C 97 % 1013,9 hPa 0,6 l/m N-NO 0,00 h 11 W/m 7,3 km/h (2 Bft)
24.06.2014 07:00 12,6 C 98 % 1014,4 hPa 0,8 l/m N-NO 0,00 h 32 W/m 6,3 km/h (2 Bft)
24.06.2014 08:00 13,1 C 98 % 1014,6 hPa 0,2 l/m N-NO 0,00 h 101 W/m 2,4 km/h (1 Bft)
24.06.2014 09:00 14,1 C 94 % 1014,8 hPa 0,0 l/m N-NO 0,00 h 174 W/m 4,4 km/h (1 Bft)
24.06.2014 10:00 15,5 C 87 % 1014,9 hPa 0,0 l/m O 0,33 h 420 W/m 6,6 km/h (2 Bft)
24.06.2014 11:00 16,9 C 79 % 1014,9 hPa 0,0 l/m O-SO 0,75 h 696 W/m 10,5 km/h (2 Bft)
24.06.2014 12:00 17,7 C 73 % 1014,6 hPa 0,0 l/m O 0,50 h 616 W/m 9,5 km/h (2 Bft)
24.06.2014 13:00 19,8 C 63 % 1013,9 hPa 0,0 l/m O-SO 1,00 h 948 W/m 12,1 km/h (2 Bft)
24.06.2014 14:00 20,2 C 60 % 1013,4 hPa 0,0 l/m O-SO 0,50 h 553 W/m 9,0 km/h (2 Bft)
24.06.2014 15:00 21,4 C 55 % 1012,9 hPa 0,0 l/m O 1,00 h 824 W/m 10,2 km/h (2 Bft)
24.06.2014 16:00 22,5 C 49 % 1012,4 hPa 0,0 l/m O-SO 1,00 h 728 W/m 11,8 km/h (2 Bft)
24.06.2014 17:00 22,5 C 48 % 1011,7 hPa 0,0 l/m O-SO 0,75 h 468 W/m 9,0 km/h (2 Bft)
24.06.2014 18:00 21,9 C 51 % 1011,2 hPa 0,0 l/m O-NO 0,83 h 340 W/m 9,1 km/h (2 Bft)
24.06.2014 19:00 21,0 C 53 % 1010,9 hPa 0,0 l/m O-NO 0,42 h 145 W/m 6,3 km/h (2 Bft)
24.06.2014 20:00 19,4 C 65 % 1010,7 hPa 0,0 l/m N 0,08 h 37 W/m 1,2 km/h (1 Bft)
24.06.2014 21:00 17,4 C 73 % 1010,6 hPa 0,0 l/m N 0,00 h 6 W/m 0,8 km/h (0 Bft)
24.06.2014 22:00 16,0 C 80 % 1010,7 hPa 0,0 l/m N 0,00 h 0 W/m 0,7 km/h (0 Bft)
24.06.2014 23:00 15,7 C 84 % 1010,7 hPa 0,0 l/m NO 0,00 h 0 W/m 3,3 km/h (1 Bft)
25.06.2014 00:00 15,3 C 89 % 1010,3 hPa 0,2 l/m W-NW 0,00 h 0 W/m 8,9 km/h (2 Bft)
25.06.2014 01:00 14,5 C 89 % 1009,3 hPa 0,2 l/m W-NW 0,00 h 0 W/m 7,0 km/h (2 Bft)
25.06.2014 02:00 14,3 C 93 % 1008,9 hPa 0,0 l/m N 0,00 h 0 W/m 0,9 km/h (0 Bft)
25.06.2014 03:00 13,9 C 94 % 1008,5 hPa 0,0 l/m N 0,00 h 0 W/m 1,2 km/h (1 Bft)
25.06.2014 04:00 13,2 C 96 % 1007,8 hPa 0,0 l/m N 0,00 h 0 W/m 0,0 km/h (0 Bft)
25.06.2014 05:00 12,9 C 96 % 1007,6 hPa 0,0 l/m W-NW 0,00 h 11 W/m 1,9 km/h (1 Bft)
25.06.2014 06:00 12,8 C 94 % 1007,5 hPa 0,0 l/m W-NW 0,00 h 29 W/m 3,3 km/h (1 Bft)
25.06.2014 07:00 13,6 C 85 % 1007,3 hPa 0,0 l/m N-NO 0,50 h 172 W/m 5,9 km/h (2 Bft)
25.06.2014 08:00 14,7 C 76 % 1007,7 hPa 0,0 l/m NO 0,17 h 202 W/m 13,3 km/h (3 Bft)
25.06.2014 09:00 16,1 C 70 % 1007,9 hPa 0,0 l/m O-NO 0,42 h 351 W/m 13,4 km/h (3 Bft)
25.06.2014 10:00 17,4 C 65 % 1008,0 hPa 0,0 l/m O-SO 0,67 h 533 W/m 13,3 km/h (3 Bft)
25.06.2014 11:00 18,9 C 60 % 1008,1 hPa 0,0 l/m N-NO 0,75 h 650 W/m 13,4 km/h (3 Bft)
25.06.2014 12:00 18,7 C 61 % 1008,1 hPa 0,0 l/m NO 0,25 h 350 W/m 17,8 km/h (3 Bft)
25.06.2014 13:00 17,6 C 66 % 1007,9 hPa 0,0 l/m N-NO 0,00 h 144 W/m 14,6 km/h (3 Bft)
25.06.2014 14:00 18,0 C 61 % 1007,8 hPa 0,0 l/m N-NO 0,08 h 274 W/m 14,5 km/h (3 Bft)
25.06.2014 15:00 18,0 C 59 % 1008,2 hPa 0,0 l/m N-NO 0,00 h 157 W/m 17,4 km/h (3 Bft)
25.06.2014 16:00 18,0 C 59 % 1008,6 hPa 0,0 l/m N-NO 0,00 h 178 W/m 14,5 km/h (3 Bft)
25.06.2014 17:00 18,8 C 56 % 1009,0 hPa 0,0 l/m N 0,58 h 400 W/m 17,6 km/h (3 Bft)
25.06.2014 18:00 17,8 C 57 % 1009,5 hPa 0,0 l/m N-NO 0,25 h 215 W/m 15,4 km/h (3 Bft)
25.06.2014 19:00 17,6 C 57 % 1010,1 hPa 0,0 l/m N-NO 0,75 h 194 W/m 13,2 km/h (3 Bft)
25.06.2014 20:00 16,2 C 59 % 1010,7 hPa 0,0 l/m N-NO 0,08 h 44 W/m 10,5 km/h (2 Bft)
25.06.2014 21:00 14,3 C 66 % 1011,3 hPa 0,0 l/m N-NO 0,00 h 9 W/m 3,7 km/h (1 Bft)
25.06.2014 22:00 12,1 C 75 % 1012,1 hPa 0,0 l/m N-NO 0,00 h 0 W/m 3,7 km/h (1 Bft)
25.06.2014 23:00 11,0 C 75 % 1012,5 hPa 0,0 l/m N-NO 0,00 h 0 W/m 3,3 km/h (1 Bft)
26.06.2014 00:00 10,0 C 78 % 1012,7 hPa 0,0 l/m N 0,00 h 0 W/m 0,9 km/h (0 Bft)
26.06.2014 01:00 9,1 C 83 % 1012,9 hPa 0,0 l/m N-NO 0,00 h 0 W/m 1,5 km/h (1 Bft)
26.06.2014 02:00 8,7 C 84 % 1012,7 hPa 0,0 l/m N 0,00 h 0 W/m 0,9 km/h (0 Bft)
26.06.2014 03:00 8,1 C 87 % 1012,6 hPa 0,0 l/m N 0,00 h 0 W/m 0,8 km/h (0 Bft)
26.06.2014 04:00 7,7 C 89 % 1012,4 hPa 0,0 l/m N 0,00 h 0 W/m 1,3 km/h (1 Bft)
26.06.2014 05:00 7,6 C 88 % 1012,3 hPa 0,0 l/m N-NO 0,00 h 9 W/m 3,2 km/h (1 Bft)
26.06.2014 06:00 8,3 C 86 % 1012,4 hPa 0,0 l/m N-NO 0,08 h 65 W/m 2,0 km/h (1 Bft)
26.06.2014 07:00 10,5 C 79 % 1012,3 hPa 0,0 l/m N-NO 1,00 h 213 W/m 7,2 km/h (2 Bft)
26.06.2014 08:00 12,9 C 71 % 1012,2 hPa 0,0 l/m NO 1,00 h 375 W/m 8,3 km/h (2 Bft)
26.06.2014 09:00 15,2 C 63 % 1012,1 hPa 0,0 l/m O-NO 1,00 h 534 W/m 10,3 km/h (2 Bft)
26.06.2014 10:00 16,8 C 54 % 1011,9 hPa 0,0 l/m O-NO 0,92 h 652 W/m 12,6 km/h (3 Bft)
26.06.2014 11:00 18,0 C 51 % 1012,0 hPa 0,0 l/m NO 1,00 h 777 W/m 12,1 km/h (2 Bft)
26.06.2014 12:00 18,8 C 50 % 1011,7 hPa 0,0 l/m NO 1,00 h 848 W/m 11,7 km/h (2 Bft)
26.06.2014 13:00 19,8 C 47 % 1011,5 hPa 0,0 l/m O 0,92 h 880 W/m 9,8 km/h (2 Bft)
26.06.2014 14:00 20,2 C 48 % 1011,1 hPa 0,0 l/m N 0,75 h 699 W/m 11,3 km/h (2 Bft)
26.06.2014 15:00 20,7 C 44 % 1010,9 hPa 0,0 l/m W-NW 0,25 h 343 W/m 12,8 km/h (3 Bft)
26.06.2014 16:00 21,8 C 42 % 1011,0 hPa 0,0 l/m N 0,75 h 587 W/m 13,0 km/h (3 Bft)
26.06.2014 17:00 22,4 C 40 % 1010,9 hPa 0,0 l/m N 1,00 h 578 W/m 9,3 km/h (2 Bft)
26.06.2014 18:00 22,2 C 40 % 1010,7 hPa 0,0 l/m N-NO 1,00 h 413 W/m 9,8 km/h (2 Bft)
26.06.2014 19:00 21,4 C 43 % 1010,9 hPa 0,0 l/m N-NO 0,33 h 133 W/m 4,4 km/h (1 Bft)
26.06.2014 20:00 19,2 C 56 % 1011,0 hPa 0,0 l/m N 0,00 h 25 W/m 0,7 km/h (0 Bft)
26.06.2014 21:00 17,4 C 64 % 1011,4 hPa 0,0 l/m N 0,00 h 7 W/m 0,1 km/h (0 Bft)
26.06.2014 22:00 16,3 C 67 % 1012,0 hPa 0,0 l/m N-NW 0,00 h 0 W/m 1,5 km/h (1 Bft)
26.06.2014 23:00 16,2 C 66 % 1012,4 hPa 0,0 l/m N-NW 0,00 h 0 W/m 5,2 km/h (1 Bft)
27.06.2014 00:00 14,8 C 68 % 1012,8 hPa 0,0 l/m N-NW 0,00 h 0 W/m 4,4 km/h (1 Bft)
27.06.2014 01:00 13,6 C 68 % 1012,9 hPa 0,0 l/m N-NW 0,00 h 0 W/m 5,1 km/h (1 Bft)
27.06.2014 02:00 12,4 C 71 % 1012,8 hPa 0,0 l/m N-NW 0,00 h 0 W/m 3,9 km/h (1 Bft)
27.06.2014 03:00 11,5 C 75 % 1012,9 hPa 0,0 l/m N 0,00 h 0 W/m 1,1 km/h (0 Bft)
27.06.2014 04:00 10,0 C 83 % 1012,9 hPa 0,0 l/m N 0,00 h 0 W/m 0,0 km/h (0 Bft)
27.06.2014 05:00 9,3 C 87 % 1013,4 hPa 0,0 l/m N 0,00 h 8 W/m 0,0 km/h (0 Bft)
27.06.2014 06:00 10,0 C 86 % 1013,9 hPa 0,0 l/m N 0,17 h 64 W/m 0,0 km/h (0 Bft)
27.06.2014 07:00 12,0 C 82 % 1014,0 hPa 0,0 l/m N 0,33 h 135 W/m 0,0 km/h (0 Bft)
27.06.2014 08:00 15,0 C 73 % 1014,2 hPa 0,0 l/m N-NW 0,92 h 353 W/m 3,3 km/h (1 Bft)
27.06.2014 09:00 18,0 C 66 % 1014,2 hPa 0,0 l/m S-SW 1,00 h 515 W/m 10,3 km/h (2 Bft)
27.06.2014 10:00 20,3 C 60 % 1014,1 hPa 0,0 l/m SW 1,00 h 653 W/m 11,7 km/h (2 Bft)
27.06.2014 11:00 21,9 C 50 % 1014,1 hPa 0,0 l/m W-NW 1,00 h 791 W/m 19,3 km/h (3 Bft)
27.06.2014 12:00 22,9 C 45 % 1013,9 hPa 0,0 l/m SW 1,00 h 855 W/m 20,4 km/h (4 Bft)
27.06.2014 13:00 23,7 C 40 % 1013,6 hPa 0,0 l/m SW 1,00 h 878 W/m 20,1 km/h (4 Bft)
27.06.2014 14:00 24,6 C 39 % 1013,3 hPa 0,0 l/m W-SW 1,00 h 853 W/m 18,8 km/h (3 Bft)
27.06.2014 15:00 25,0 C 38 % 1012,9 hPa 0,0 l/m W-SW 1,00 h 725 W/m 17,3 km/h (3 Bft)
27.06.2014 16:00 25,4 C 37 % 1012,4 hPa 0,0 l/m W-SW 1,00 h 638 W/m 14,1 km/h (3 Bft)
27.06.2014 17:00 24,9 C 39 % 1012,1 hPa 0,0 l/m W-SW 0,67 h 343 W/m 9,1 km/h (2 Bft)
27.06.2014 18:00 23,9 C 41 % 1011,9 hPa 0,0 l/m W-SW 0,50 h 249 W/m 10,9 km/h (2 Bft)
27.06.2014 19:00 23,3 C 42 % 1012,2 hPa 0,0 l/m SW 0,33 h 130 W/m 10,2 km/h (2 Bft)
27.06.2014 20:00 21,6 C 48 % 1012,1 hPa 0,0 l/m SW 0,00 h 41 W/m 5,6 km/h (1 Bft)
27.06.2014 21:00 19,9 C 54 % 1012,3 hPa 0,0 l/m SW 0,00 h 8 W/m 4,8 km/h (1 Bft)
27.06.2014 22:00 17,6 C 64 % 1012,6 hPa 0,0 l/m N 0,00 h 0 W/m 2,4 km/h (1 Bft)
27.06.2014 23:00 16,4 C 72 % 1012,8 hPa 0,0 l/m N 0,00 h 0 W/m 0,4 km/h (0 Bft)
28.06.2014 00:00 15,7 C 75 % 1013,1 hPa 0,0 l/m SW 0,00 h 0 W/m 1,9 km/h (1 Bft)
28.06.2014 01:00 16,9 C 72 % 1013,2 hPa 0,0 l/m SW 0,00 h 0 W/m 13,0 km/h (3 Bft)
28.06.2014 02:00 16,3 C 75 % 1013,3 hPa 0,0 l/m SW 0,00 h 0 W/m 9,2 km/h (2 Bft)
28.06.2014 03:00 15,2 C 82 % 1013,3 hPa 0,0 l/m SW 0,00 h 0 W/m 7,3 km/h (2 Bft)
28.06.2014 04:00 15,4 C 82 % 1013,2 hPa 0,0 l/m SW 0,00 h 0 W/m 7,8 km/h (2 Bft)
28.06.2014 05:00 14,9 C 85 % 1012,9 hPa 0,0 l/m SW 0,00 h 8 W/m 5,1 km/h (1 Bft)
28.06.2014 06:00 15,0 C 87 % 1012,6 hPa 0,0 l/m SW 0,00 h 33 W/m 2,8 km/h (1 Bft)
28.06.2014 07:00 15,5 C 86 % 1012,4 hPa 0,0 l/m N 0,00 h 95 W/m 2,5 km/h (1 Bft)
28.06.2014 08:00 16,8 C 84 % 1012,1 hPa 0,0 l/m SW 0,42 h 238 W/m 5,5 km/h (1 Bft)
28.06.2014 09:00 19,2 C 73 % 1011,8 hPa 0,0 l/m SW 0,67 h 334 W/m 6,3 km/h (2 Bft)
28.06.2014 10:00 20,7 C 65 % 1011,3 hPa 0,0 l/m SW 0,67 h 502 W/m 4,9 km/h (1 Bft)
28.06.2014 11:00 23,1 C 56 % 1010,7 hPa 0,0 l/m S 1,00 h 773 W/m 9,4 km/h (2 Bft)
28.06.2014 12:00 24,1 C 50 % 1010,0 hPa 0,0 l/m SW 0,25 h 371 W/m 12,3 km/h (3 Bft)
28.06.2014 13:00 23,7 C 53 % 1009,3 hPa 0,0 l/m W-SW 0,17 h 376 W/m 10,1 km/h (2 Bft)
28.06.2014 14:00 24,8 C 46 % 1008,6 hPa 0,0 l/m W-NW 0,25 h 394 W/m 13,4 km/h (3 Bft)
28.06.2014 15:00 23,0 C 51 % 1008,4 hPa 0,0 l/m W-NW 0,00 h 136 W/m 13,7 km/h (3 Bft)
28.06.2014 16:00 21,9 C 58 % 1008,7 hPa 0,0 l/m W-NW 0,00 h 175 W/m 17,8 km/h (3 Bft)
28.06.2014 17:00 21,3 C 60 % 1008,1 hPa 0,0 l/m O-NO 0,00 h 194 W/m 5,7 km/h (1 Bft)
28.06.2014 18:00 21,1 C 68 % 1007,5 hPa 0,2 l/m O-SO 0,25 h 157 W/m 8,4 km/h (2 Bft)
28.06.2014 19:00 19,9 C 76 % 1006,6 hPa 0,0 l/m S-SO 0,08 h 81 W/m 8,3 km/h (2 Bft)
28.06.2014 20:00 18,8 C 82 % 1006,4 hPa 0,0 l/m N-NW 0,00 h 26 W/m 7,1 km/h (2 Bft)
28.06.2014 21:00 17,7 C 84 % 1006,9 hPa 0,0 l/m N-NW 0,00 h 5 W/m 15,7 km/h (3 Bft)
28.06.2014 22:00 16,1 C 86 % 1008,5 hPa 4,4 l/m W-NW 0,00 h 0 W/m 19,8 km/h (4 Bft)
28.06.2014 23:00 14,9 C 94 % 1007,0 hPa 0,0 l/m NO 0,00 h 0 W/m 4,5 km/h (1 Bft)
29.06.2014 00:00 14,7 C 96 % 1008,3 hPa 1,8 l/m W-NW 0,00 h 0 W/m 9,7 km/h (2 Bft)
29.06.2014 01:00 14,8 C 96 % 1008,9 hPa 8,6 l/m W 0,00 h 0 W/m 16,6 km/h (3 Bft)
29.06.2014 02:00 14,8 C 97 % 1008,7 hPa 2,6 l/m SW 0,00 h 0 W/m 13,3 km/h (3 Bft)
29.06.2014 03:00 14,5 C 97 % 1007,6 hPa 0,2 l/m SW 0,00 h 0 W/m 12,2 km/h (2 Bft)
29.06.2014 04:00 14,4 C 98 % 1006,4 hPa 0,0 l/m SW 0,00 h 0 W/m 14,8 km/h (3 Bft)
29.06.2014 05:00 14,4 C 98 % 1006,1 hPa 0,4 l/m SW 0,00 h 0 W/m 11,4 km/h (2 Bft)
29.06.2014 06:00 14,4 C 98 % 1006,3 hPa 2,6 l/m SW 0,00 h 8 W/m 13,4 km/h (3 Bft)
29.06.2014 07:00 14,1 C 98 % 1006,2 hPa 0,6 l/m SW 0,00 h 27 W/m 16,4 km/h (3 Bft)
29.06.2014 08:00 14,3 C 98 % 1006,7 hPa 0,4 l/m S-SW 0,00 h 35 W/m 14,4 km/h (3 Bft)
29.06.2014 09:00 14,4 C 98 % 1007,3 hPa 1,2 l/m SW 0,00 h 63 W/m 14,6 km/h (3 Bft)
29.06.2014 10:00 14,8 C 98 % 1007,3 hPa 0,0 l/m SW 0,00 h 99 W/m 17,3 km/h (3 Bft)
29.06.2014 11:00 14,7 C 96 % 1007,7 hPa 0,2 l/m SW 0,00 h 83 W/m 17,8 km/h (3 Bft)
29.06.2014 12:00 14,3 C 96 % 1008,1 hPa 0,6 l/m SW 0,00 h 161 W/m 18,1 km/h (3 Bft)
29.06.2014 13:00 14,5 C 96 % 1008,4 hPa 0,0 l/m SW 0,00 h 136 W/m 21,3 km/h (4 Bft)
29.06.2014 14:00 14,0 C 95 % 1008,7 hPa 0,2 l/m SW 0,00 h 78 W/m 23,4 km/h (4 Bft)
29.06.2014 15:00 13,3 C 97 % 1009,0 hPa 0,2 l/m SW 0,00 h 85 W/m 21,7 km/h (4 Bft)
29.06.2014 16:00 13,6 C 96 % 1009,1 hPa 0,0 l/m SW 0,00 h 103 W/m 16,2 km/h (3 Bft)
29.06.2014 17:00 13,4 C 97 % 1009,3 hPa 1,8 l/m SW 0,00 h 43 W/m 15,0 km/h (3 Bft)
29.06.2014 18:00 13,1 C 97 % 1009,1 hPa 1,0 l/m S-SW 0,00 h 52 W/m 16,0 km/h (3 Bft)
29.06.2014 19:00 12,8 C 97 % 1009,4 hPa 0,0 l/m S 0,00 h 25 W/m 13,0 km/h (3 Bft)
29.06.2014 20:00 12,3 C 97 % 1010,1 hPa 5,6 l/m W-SW 0,00 h 11 W/m 6,8 km/h (2 Bft)
29.06.2014 21:00 11,7 C 98 % 1010,2 hPa 0,0 l/m SW 0,17 h 14 W/m 7,0 km/h (2 Bft)
29.06.2014 22:00 11,3 C 98 % 1011,0 hPa 0,0 l/m SW 0,00 h 0 W/m 9,3 km/h (2 Bft)
29.06.2014 23:00 11,0 C 98 % 1011,5 hPa 0,0 l/m SW 0,00 h 0 W/m 14,0 km/h (3 Bft)
Min-Datum _ 26.06.14 27.06.14 29.06.14 - - - - 23.06.14
_ Min-Zeit 04:25 15:15 04:50 - - - - 02:00
Minimum _ 7,5 C 36 % 1005,8 hPa - - - - 0,0 km/h (0 Bft)
Max-Datum _ 23.06.14 24.06.14 23.06.14 23.06.14 - 23.06.14 28.06.14 23.06.14
_ Max-Zeit 15:05 05:20 00:45 18:05 - 05:35 14:00 17:55
Maximum _ 26,3 C 98 % 1017,9 hPa 10,8 l/m - 0,08 h 1025 W/m 40,2 km/h
O (6 Bft)
Durchschnitt _ 16,7 C 73 % 1011,6 hPa #57,6 l/m SW #46:10 h 300 W/m 8,9 km/h (2 Bft)